Disclaimer

    

CYCD

METAR CYCD 170300Z 13009KT 090V160 6SM BR SCT009 OVC015 10/09 A3012 RMK SF4SC4 SLP203=

SPECI CYCD 170227Z 13007KT 090V170 4SM BR SCT005 BKN010 BKN025 10/09 A3013 RMK SF4SF2SC1 SLP206=

METAR CYCD 170200Z 14008KT 090V160 4SM -RA BR BKN005 BKN009 OVC036 10/09 A3013 RMK SF5SF2SC1 SLP206=

METAR CYCD 170100Z 12006KT 010V160 3SM -RA BR BKN005 BKN010 OVC040 10/09 A3014 RMK SF5SF2SC1 CIG RAG SLP208=

TAF AMD CYCD 170028Z 1700/1705 11005KT 1SM -RA BR OVC003 TEMPO 1700/1705 6SM -RA BR OVC010 RMK NXT FCST WILL BE ISSUED AT 171545Z=

CYVR

METAR CYVR 170300Z 08011KT 20SM FEW015 BKN020 OVC045 10/09 A3016 RMK SC1SC6SC1 SLP215=

SPECI CYVR 170243Z 07010KT 20SM SCT018 BKN027 OVC045 10/09 A3017 RMK SC3SC4SC1 SLP218=

METAR CYVR 170200Z 09009KT 10SM -RA FEW029 BKN045 OVC052 10/09 A3019 RMK SC2SC5SC1 SLP223=

SPECI CYVR 170105Z 07008KT 10SM -RA FEW034 BKN047 OVC058 10/09 A3018 RMK SC2SC5SC1 SLP220=

METAR CYVR 170100Z 08008KT 10SM FEW034 BKN054 OVC072 10/09 A3018 RMK SC2SC5AS1 SLP222=

TAF CYVR 170238Z 1703/1806 09010KT P6SM SCT020 OVC050 TEMPO 1703/1708 4SM RA BR SCT006 OVC020 PROB30 1705/1708 2SM RA BR BKN006 OVC012
FM170800 11010KT 2SM RA BR BKN006 OVC012 TEMPO 1708/1714 6SM -RA BR SCT006 OVC012
FM171400 13014KT 5SM -DZ BR BKN006 OVC012 TEMPO 1714/1720 P6SM NSW SCT006 OVC012
FM172000 18008KT P6SM SCT030 BECMG 1720/1722 28008KT BECMG 1802/1804 VRB03KT
FM180400 VRB03KT P6SM BKN008 RMK NXT FCST BY 170600Z=

CYXX

METAR CYXX 170300Z 01005KT 10SM -RA FEW005 BKN030 OVC038 09/09 A3018 RMK SF1SC7NS1 SF TR SLP222=

METAR CYXX 170200Z 01006KT 8SM -RA FEW005 BKN035 OVC044 09/08 A3019 RMK SF1SC7SC1 SF TR SLP226=

METAR CYXX 170100Z 34005KT 15SM -RA FEW003 BKN046 BKN060 OVC077 09/08 A3019 RMK SF1SC5SC2AS1 SF TR SLP227=

TAF CYXX 162338Z 1700/1724 02005KT P6SM -RA SCT020 OVC070 TEMPO 1700/1720 3SM RA BR BKN020 OVC040 BECMG 1702/1704 17010KT
FM172000 19015G25KT P6SM BKN020 RMK NXT FCST BY 170600Z=

Supplemental information

Lower mainland ATIS: 1-877-517-2847

CZBB (Boundary Bay) current winds

Upper winds (Vancouver)

Data fromValid at300060009000
17000017060018182440+052646+01
17000017120020222442+062557+01
17000018000031222814+022929-01

NOTAMs

Ten newest NOTAMs per file () are highlighted.